createdAt,value
2023-04-11T00:00:02.386Z,100411.50
2023-04-11T00:01:33.779Z,100442.66
2023-04-11T00:01:55.963Z,100419.22
2023-04-11T00:02:17.819Z,100450.34
2023-04-11T00:02:39.696Z,100454.63
2023-04-11T00:03:02.750Z,100454.50
2023-04-11T00:03:25.331Z,100454.50
2023-04-11T00:03:47.311Z,100450.97
2023-04-11T00:04:13.222Z,100453.50
2023-04-11T00:04:39.161Z,100450.91
2023-04-11T00:05:03.328Z,100453.56
2023-04-11T00:05:25.588Z,100445.00
2023-04-11T00:05:48.619Z,100459.78
2023-04-11T00:06:11.158Z,100458.13
2023-04-11T00:06:33.777Z,100460.78
2023-04-11T00:06:55.535Z,100464.41
2023-04-11T00:07:17.283Z,100460.94
2023-04-11T00:07:38.923Z,100458.34
2023-04-11T00:08:01.521Z,100460.25
2023-04-11T00:08:23.180Z,100455.84
2023-04-11T00:08:44.759Z,100457.69
2023-04-11T00:09:06.466Z,100462.19
2023-04-11T00:09:29.094Z,100454.56
2023-04-11T00:09:50.745Z,100465.16
2023-04-11T00:10:12.456Z,100451.41
2023-04-11T00:10:34.075Z,100466.25
2023-04-11T00:10:56.752Z,100463.66
2023-04-11T00:11:18.753Z,100461.03
2023-04-11T00:11:40.426Z,100456.56
2023-04-11T00:12:02.328Z,100463.66
2023-04-11T00:12:24.395Z,100457.72
2023-04-11T00:12:47.164Z,100464.00
2023-04-11T00:13:10.275Z,100467.53
2023-04-11T00:13:31.953Z,100464.00
2023-04-11T00:13:57.386Z,100459.84
2023-04-11T00:14:20.891Z,100465.88
2023-04-11T00:14:45.275Z,100448.63
2023-04-11T00:15:08.662Z,100459.84
2023-04-11T00:15:32.499Z,100466.09
2023-04-11T00:15:55.690Z,100467.84
2023-04-11T00:16:19.498Z,100469.56
2023-04-11T00:16:41.552Z,100454.75
2023-04-11T00:17:05.981Z,100468.41
2023-04-11T00:17:28.741Z,100471.00
2023-04-11T00:17:50.493Z,100461.03
2023-04-11T00:18:12.664Z,100468.91
2023-04-11T00:18:36.931Z,100475.09
2023-04-11T00:18:58.538Z,100469.63
2023-04-11T00:19:23.336Z,100473.94
2023-04-11T00:19:46.013Z,100472.06
2023-04-11T00:20:10.884Z,100464.88
2023-04-11T00:20:32.578Z,100471.03
2023-04-11T00:20:55.521Z,100472.78
2023-04-11T00:21:17.390Z,100470.97
2023-04-11T00:21:40.498Z,100468.25
2023-04-11T00:22:02.731Z,100468.31
2023-04-11T00:22:24.985Z,100469.19
2023-04-11T00:22:46.793Z,100457.50
2023-04-11T00:23:09.480Z,100469.97
2023-04-11T00:23:31.179Z,100469.97
2023-04-11T00:23:53.256Z,100461.09
2023-04-11T00:24:15.059Z,100456.88
2023-04-11T00:24:36.682Z,100454.97
2023-04-11T00:24:58.278Z,100452.22
2023-04-11T00:25:21.231Z,100455.78
2023-04-11T00:25:42.899Z,100448.47
2023-04-11T00:26:05.423Z,100442.19
2023-04-11T00:26:27.770Z,100445.75
2023-04-11T00:26:50.050Z,100442.09
2023-04-11T00:27:11.667Z,100430.59
2023-04-11T00:27:34.328Z,100434.97
2023-04-11T00:27:55.945Z,100441.34
2023-04-11T00:28:17.564Z,100429.97
2023-04-11T00:28:39.217Z,100425.56
2023-04-11T00:29:01.793Z,100421.31
2023-04-11T00:29:23.387Z,100421.78
2023-04-11T00:29:45.112Z,100421.78
2023-04-11T00:30:07.973Z,100416.44
2023-04-11T00:30:30.663Z,100430.59
2023-04-11T00:30:52.288Z,100429.72
2023-04-11T00:31:14.230Z,100425.09
2023-04-11T00:31:36.201Z,100425.09
2023-04-11T00:31:57.897Z,100424.22
2023-04-11T00:32:19.662Z,100418.09
2023-04-11T00:32:42.274Z,100426.97
2023-04-11T00:33:10.931Z,100418.09
2023-04-11T00:33:35.354Z,100434.03
2023-04-11T00:33:59.704Z,100426.25
2023-04-11T00:34:25.236Z,100427.75
2023-04-11T00:34:47.518Z,100439.38
2023-04-11T00:35:15.170Z,100436.56
2023-04-11T00:35:44.434Z,100426.88
2023-04-11T00:36:11.752Z,100443.38
2023-04-11T00:37:14.124Z,100444.19
2023-04-11T00:37:36.973Z,100442.38
2023-04-11T00:37:58.814Z,100453.84
2023-04-11T00:38:22.020Z,100440.50
2023-04-11T00:38:44.571Z,100443.88
2023-04-11T00:39:07.292Z,100436.00
2023-04-11T00:39:31.745Z,100446.38
2023-04-11T00:39:55.828Z,100440.19
2023-04-11T00:40:18.746Z,100449.91
2023-04-11T00:40:41.808Z,100446.38
2023-04-11T00:41:03.607Z,100445.44
2023-04-11T00:41:25.329Z,100449.28
2023-04-11T00:41:47.119Z,100442.75
2023-04-11T00:42:09.138Z,100443.53
2023-04-11T00:42:34.295Z,100446.19
2023-04-11T00:42:56.217Z,100441.69
2023-04-11T00:43:17.870Z,100448.91
2023-04-11T00:43:40.609Z,100441.28
2023-04-11T00:44:02.445Z,100447.19
2023-04-11T00:44:25.445Z,100446.25
2023-04-11T00:44:47.478Z,100439.03
2023-04-11T00:45:10.362Z,100441.56
2023-04-11T00:45:33.442Z,100447.44
2023-04-11T00:45:55.337Z,100450.03
2023-04-11T00:46:17.958Z,100455.38
2023-04-11T00:46:44.813Z,100454.50
2023-04-11T00:47:09.107Z,100452.25
2023-04-11T00:47:32.652Z,100456.34
2023-04-11T00:47:54.506Z,100452.31
2023-04-11T00:48:16.560Z,100456.56
2023-04-11T00:48:38.383Z,100451.31
2023-04-11T00:49:01.135Z,100449.66
2023-04-11T00:49:23.013Z,100453.97
2023-04-11T00:49:45.808Z,100456.00
2023-04-11T00:50:08.297Z,100451.41
2023-04-11T00:50:31.059Z,100455.06
2023-04-11T00:50:52.750Z,100447.06
2023-04-11T00:51:16.096Z,100451.41
2023-04-11T00:51:39.458Z,100437.25
2023-04-11T00:52:01.923Z,100454.94
2023-04-11T00:52:23.883Z,100445.97
2023-04-11T00:52:47.991Z,100452.03
2023-04-11T00:53:12.912Z,100451.19
2023-04-11T00:53:35.358Z,100449.38
2023-04-11T00:53:57.147Z,100446.53
2023-04-11T00:54:19.061Z,100439.25
2023-04-11T00:54:41.896Z,100443.72
2023-04-11T00:55:04.350Z,100437.38
2023-04-11T00:55:27.189Z,100438.66
2023-04-11T00:55:49.893Z,100443.06
2023-04-11T00:56:13.138Z,100433.00
2023-04-11T00:56:35.196Z,100431.22
2023-04-11T00:56:58.910Z,100433.66
2023-04-11T00:57:22.810Z,100426.88
2023-04-11T00:57:44.984Z,100431.00
2023-04-11T00:58:08.905Z,100431.78
2023-04-11T00:58:32.112Z,100429.84
2023-04-11T00:58:54.475Z,100422.59
2023-04-11T00:59:16.454Z,100432.34
2023-04-11T00:59:38.481Z,100427.81
2023-04-11T01:00:02.919Z,100434.94
2023-04-11T01:00:26.996Z,100422.13
2023-04-11T01:00:49.911Z,100423.00
2023-04-11T01:01:11.973Z,100421.13
2023-04-11T01:01:36.276Z,100413.88
2023-04-11T01:01:59.590Z,100432.28
2023-04-11T01:02:21.677Z,100430.38
2023-04-11T01:02:43.865Z,100432.91
2023-04-11T01:03:06.957Z,100437.31
2023-04-11T01:03:30.253Z,100432.91
2023-04-11T01:03:52.653Z,100438.03
2023-04-11T01:04:14.393Z,100427.59
2023-04-11T01:04:36.136Z,100427.16
2023-04-11T01:05:00.616Z,100439.63
2023-04-11T01:05:22.495Z,100420.97
2023-04-11T01:05:45.966Z,100430.31
2023-04-11T01:06:11.080Z,100422.59
2023-04-11T01:06:35.648Z,100418.78
2023-04-11T01:07:03.867Z,100423.00
2023-04-11T01:07:25.977Z,100417.69
2023-04-11T01:07:52.349Z,100411.69
2023-04-11T01:08:15.201Z,100402.94
2023-04-11T01:08:38.313Z,100417.53
2023-04-11T01:09:00.337Z,100416.50
2023-04-11T01:09:25.333Z,100419.34
2023-04-11T01:09:48.769Z,100427.28
2023-04-11T01:10:11.402Z,100430.88
2023-04-11T01:10:33.547Z,100419.34
2023-04-11T01:10:55.587Z,100420.34
2023-04-11T01:11:20.107Z,100426.53
2023-04-11T01:11:43.658Z,100428.28
2023-04-11T01:12:06.911Z,100418.06
2023-04-11T01:12:29.953Z,100417.03
2023-04-11T01:12:52.932Z,100418.88
2023-04-11T01:13:15.445Z,100410.94
2023-04-11T01:13:41.770Z,100407.22
2023-04-11T01:14:03.845Z,100417.91
2023-04-11T01:14:27.225Z,100417.91
2023-04-11T01:14:49.430Z,100417.91
2023-04-11T01:15:12.566Z,100416.97
2023-04-11T01:15:34.268Z,100411.69
2023-04-11T01:15:56.404Z,100420.50
2023-04-11T01:16:21.303Z,100423.19
2023-04-11T01:16:47.047Z,100417.03
2023-04-11T01:17:12.575Z,100413.59
2023-04-11T01:17:36.175Z,100415.16
2023-04-11T01:18:03.086Z,100413.81
2023-04-11T01:18:26.717Z,100401.25
2023-04-11T01:18:48.938Z,100411.06
2023-04-11T01:19:10.860Z,100398.75
2023-04-11T01:19:33.589Z,100406.50
2023-04-11T01:19:56.415Z,100402.00
2023-04-11T01:20:18.457Z,100409.81
2023-04-11T01:20:40.259Z,100415.22
2023-04-11T01:21:02.306Z,100409.72
2023-04-11T01:21:25.408Z,100406.19
2023-04-11T01:21:55.662Z,100403.16
2023-04-11T01:22:20.798Z,100400.31
2023-04-11T01:22:43.064Z,100399.56
2023-04-11T01:23:06.390Z,100398.59
2023-04-11T01:23:29.862Z,100404.03
2023-04-11T01:23:54.209Z,100402.94
2023-04-11T01:24:16.319Z,100400.31
2023-04-11T01:24:38.138Z,100399.41
2023-04-11T01:25:02.198Z,100408.25
2023-04-11T01:25:26.674Z,100406.91
2023-04-11T01:25:49.298Z,100404.84
2023-04-11T01:26:11.349Z,100414.75
2023-04-11T01:26:33.430Z,100395.22
2023-04-11T01:26:56.751Z,100402.97
2023-04-11T01:27:20.483Z,100403.69
2023-04-11T01:27:42.447Z,100412.47
2023-04-11T01:28:04.465Z,100407.91
2023-04-11T01:28:26.934Z,100407.69
2023-04-11T01:28:49.823Z,100410.22
2023-04-11T01:29:11.833Z,100407.69
2023-04-11T01:29:33.635Z,100406.59
2023-04-11T01:29:55.349Z,100387.38
2023-04-11T01:30:19.442Z,100412.56
2023-04-11T01:30:43.387Z,100418.72
2023-04-11T01:31:06.697Z,100416.91
2023-04-11T01:31:28.548Z,100413.38
2023-04-11T01:31:51.492Z,100410.53
2023-04-11T01:32:14.226Z,100420.34
2023-04-11T01:32:35.984Z,100420.28
2023-04-11T01:32:57.804Z,100416.75
2023-04-11T01:33:19.665Z,100416.09
2023-04-11T01:33:43.187Z,100423.25
2023-04-11T01:34:07.380Z,100416.34
2023-04-11T01:34:31.676Z,100414.75
2023-04-11T01:34:56.764Z,100426.47
2023-04-11T01:35:19.196Z,100429.47
2023-04-11T01:35:41.182Z,100425.72
2023-04-11T01:36:04.403Z,100425.72
2023-04-11T01:36:27.090Z,100427.63
2023-04-11T01:36:48.880Z,100423.78
2023-04-11T01:37:10.776Z,100414.06
2023-04-11T01:37:32.793Z,100412.16
2023-04-11T01:37:55.544Z,100417.44
2023-04-11T01:38:17.455Z,100426.88
2023-04-11T01:38:40.694Z,100416.28
2023-04-11T01:39:02.435Z,100423.25
2023-04-11T01:39:24.211Z,100418.78
2023-04-11T01:39:46.853Z,100416.28
2023-04-11T01:40:09.591Z,100422.34
2023-04-11T01:40:32.649Z,100421.41
2023-04-11T01:40:56.060Z,100421.25
2023-04-11T01:41:21.007Z,100410.19
2023-04-11T01:41:43.800Z,100417.94
2023-04-11T01:42:06.743Z,100417.00
2023-04-11T01:42:30.752Z,100410.75
2023-04-11T01:42:53.438Z,100411.03
2023-04-11T01:43:15.807Z,100415.34
2023-04-11T01:43:37.645Z,100414.34
2023-04-11T01:43:59.542Z,100413.53
2023-04-11T01:44:23.024Z,100414.34
2023-04-11T01:44:44.827Z,100412.09
2023-04-11T01:45:08.218Z,100404.22
2023-04-11T01:45:30.791Z,100411.88
2023-04-11T01:45:54.548Z,100407.41
2023-04-11T01:46:17.065Z,100412.81
2023-04-11T01:46:38.887Z,100405.69
2023-04-11T01:47:00.831Z,100413.59
2023-04-11T01:47:23.757Z,100408.34
2023-04-11T01:47:45.586Z,100406.78
2023-04-11T01:48:07.723Z,100405.31
2023-04-11T01:48:29.663Z,100409.72
2023-04-11T01:48:54.965Z,100407.28
2023-04-11T01:49:19.161Z,100401.13
2023-04-11T01:49:42.431Z,100410.00
2023-04-11T01:50:04.862Z,100410.72
2023-04-11T01:50:26.594Z,100406.53
2023-04-11T01:50:50.887Z,100415.06
2023-04-11T01:51:12.729Z,100415.81
2023-04-11T01:51:34.514Z,100419.16
2023-04-11T01:51:56.053Z,100415.63
2023-04-11T01:52:18.656Z,100417.78
2023-04-11T01:52:41.114Z,100422.84
2023-04-11T01:53:04.094Z,100420.09
2023-04-11T01:53:25.863Z,100424.34
2023-04-11T01:53:49.806Z,100424.19
2023-04-11T01:54:11.577Z,100428.44
2023-04-11T01:54:33.227Z,100424.72
2023-04-11T01:54:55.362Z,100429.03
2023-04-11T01:55:17.549Z,100428.00
2023-04-11T01:55:40.279Z,100421.03
2023-04-11T01:56:01.953Z,100418.19
2023-04-11T01:56:23.677Z,100426.88
2023-04-11T01:56:45.565Z,100422.28
2023-04-11T01:57:08.240Z,100425.06
2023-04-11T01:57:31.011Z,100431.28
2023-04-11T01:57:52.952Z,100419.84
2023-04-11T01:58:14.612Z,100417.22
2023-04-11T01:58:37.391Z,100422.34
2023-04-11T01:59:01.113Z,100414.75
2023-04-11T01:59:22.721Z,100425.19
2023-04-11T01:59:44.378Z,100431.44
2023-04-11T02:00:08.923Z,100415.53
2023-04-11T02:00:37.742Z,100422.50
2023-04-11T02:00:59.357Z,100419.84
2023-04-11T02:01:21.682Z,100430.50
2023-04-11T02:01:44.186Z,100424.50
2023-04-11T02:02:07.071Z,100430.75
2023-04-11T02:02:28.948Z,100426.13
2023-04-11T02:02:50.849Z,100423.47
2023-04-11T02:03:12.756Z,100427.16
2023-04-11T02:03:34.801Z,100432.50
2023-04-11T02:03:57.869Z,100425.25
2023-04-11T02:04:19.758Z,100432.38
2023-04-11T02:04:41.514Z,100429.63
2023-04-11T02:05:03.492Z,100424.31
2023-04-11T02:05:25.243Z,100426.81
2023-04-11T02:05:48.015Z,100430.75
2023-04-11T02:06:09.741Z,100430.25
2023-04-11T02:06:32.105Z,100426.78
2023-04-11T02:06:53.771Z,100439.09
2023-04-11T02:07:16.471Z,100432.84
2023-04-11T02:07:38.325Z,100427.34
2023-04-11T02:07:59.987Z,100433.34
2023-04-11T02:08:21.628Z,100434.91
2023-04-11T02:08:44.548Z,100426.66
2023-04-11T02:09:07.978Z,100431.59
2023-04-11T02:09:29.625Z,100426.16
2023-04-11T02:09:51.247Z,100423.19
2023-04-11T02:10:13.897Z,100433.50
2023-04-11T02:10:35.624Z,100428.38
2023-04-11T02:10:57.326Z,100425.72
2023-04-11T02:11:19.164Z,100428.16
2023-04-11T02:11:44.905Z,100427.13
2023-04-11T02:12:06.659Z,100417.72
2023-04-11T02:12:28.273Z,100424.84
2023-04-11T02:12:49.928Z,100418.59
2023-04-11T02:13:11.638Z,100421.25
2023-04-11T02:13:34.289Z,100426.28
2023-04-11T02:13:55.971Z,100425.34
2023-04-11T02:14:20.355Z,100433.34
2023-04-11T02:14:43.387Z,100435.13
2023-04-11T02:15:09.241Z,100434.91
2023-04-11T02:15:30.992Z,100427.88
2023-04-11T02:15:52.694Z,100429.41
2023-04-11T02:16:15.048Z,100429.31
2023-04-11T02:16:49.960Z,100435.50
2023-04-11T02:17:14.067Z,100445.03
2023-04-11T02:17:36.776Z,100428.09
2023-04-11T02:18:00.170Z,100441.25
2023-04-11T02:18:21.968Z,100432.50
2023-04-11T02:18:45.196Z,100444.81
2023-04-11T02:19:07.860Z,100443.16
2023-04-11T02:19:30.957Z,100439.69
2023-04-11T02:19:52.728Z,100436.31
2023-04-11T02:20:14.831Z,100448.63
2023-04-11T02:20:37.348Z,100446.75
2023-04-11T02:21:00.666Z,100444.16
2023-04-11T02:21:22.813Z,100435.28
2023-04-11T02:21:45.923Z,100442.34
2023-04-11T02:22:08.948Z,100441.66
2023-04-11T02:22:31.694Z,100444.59
2023-04-11T02:22:53.408Z,100442.16
2023-04-11T02:23:16.231Z,100442.84
2023-04-11T02:23:38.054Z,100446.25
2023-04-11T02:24:00.952Z,100437.41
2023-04-11T02:24:25.296Z,100443.88
2023-04-11T02:24:47.530Z,100441.22
2023-04-11T02:25:09.834Z,100431.41
2023-04-11T02:25:31.798Z,100438.63
2023-04-11T02:25:54.394Z,100433.22
2023-04-11T02:26:17.064Z,100435.34
2023-04-11T02:26:39.961Z,100444.09
2023-04-11T02:27:02.199Z,100433.28
2023-04-11T02:27:23.815Z,100439.53
2023-04-11T02:27:45.536Z,100447.31
2023-04-11T02:28:08.456Z,100453.31
2023-04-11T02:28:30.392Z,100445.25
2023-04-11T02:28:51.983Z,100441.13
2023-04-11T02:29:16.004Z,100446.34
2023-04-11T02:29:38.638Z,100447.03
2023-04-11T02:30:00.804Z,100452.38
2023-04-11T02:30:22.667Z,100434.78
2023-04-11T02:30:45.450Z,100450.63
2023-04-11T02:31:07.557Z,100453.47
2023-04-11T02:31:30.799Z,100453.75
2023-04-11T02:31:52.589Z,100451.50
2023-04-11T02:32:14.409Z,100454.72
2023-04-11T02:32:37.757Z,100453.22
2023-04-11T02:33:00.953Z,100462.88
2023-04-11T02:33:22.943Z,100452.06
2023-04-11T02:33:44.557Z,100459.94
2023-04-11T02:34:06.232Z,100462.50
2023-04-11T02:34:30.900Z,100453.53
2023-04-11T02:34:52.518Z,100461.50
2023-04-11T02:35:14.149Z,100447.25
2023-04-11T02:35:36.121Z,100455.81
2023-04-11T02:35:59.158Z,100451.34
2023-04-11T02:36:22.888Z,100449.44
2023-04-11T02:36:45.763Z,100452.44
2023-04-11T02:37:07.438Z,100460.41
2023-04-11T02:37:29.082Z,100448.75
2023-04-11T02:37:51.703Z,100456.69
2023-04-11T02:38:13.704Z,100447.78
2023-04-11T02:38:37.535Z,100457.50
2023-04-11T02:38:59.228Z,100444.66
2023-04-11T02:39:23.906Z,100453.97
2023-04-11T02:39:46.903Z,100451.97
2023-04-11T02:40:10.674Z,100457.03
2023-04-11T02:40:33.262Z,100456.81
2023-04-11T02:40:54.953Z,100455.81
2023-04-11T02:41:16.622Z,100466.34
2023-04-11T02:41:38.821Z,100459.13
2023-04-11T02:42:01.439Z,100465.19
2023-04-11T02:42:23.132Z,100456.25
2023-04-11T02:42:44.960Z,100468.59
2023-04-11T02:43:06.810Z,100461.47
2023-04-11T02:43:29.616Z,100455.09
2023-04-11T02:43:51.286Z,100461.47
2023-04-11T02:44:14.534Z,100464.03
2023-04-11T02:44:37.604Z,100458.63
2023-04-11T02:45:00.044Z,100461.16
2023-04-11T02:45:24.765Z,100442.69
2023-04-11T02:45:46.848Z,100456.88
2023-04-11T02:46:12.537Z,100466.63
2023-04-11T02:46:35.156Z,100463.41
2023-04-11T02:46:59.427Z,100457.63
2023-04-11T02:47:21.747Z,100473.16
2023-04-11T02:47:43.452Z,100459.97
2023-04-11T02:48:06.294Z,100461.63
2023-04-11T02:48:33.020Z,100471.94
2023-04-11T02:48:54.873Z,100464.72
2023-04-11T02:49:16.790Z,100471.78
2023-04-11T02:49:42.305Z,100471.59
2023-04-11T02:50:07.230Z,100469.78
2023-04-11T02:50:34.216Z,100476.66
2023-04-11T02:50:55.872Z,100474.84
2023-04-11T02:51:17.544Z,100475.78
2023-04-11T02:51:40.360Z,100477.44
2023-04-11T02:52:02.140Z,100476.50
2023-04-11T02:52:23.916Z,100475.50
2023-04-11T02:52:47.857Z,100477.25
2023-04-11T02:53:11.393Z,100481.69
2023-04-11T02:53:39.531Z,100480.66
2023-04-11T02:54:01.226Z,100474.81
2023-04-11T02:54:23.160Z,100482.63
2023-04-11T02:54:45.051Z,100481.03
2023-04-11T02:55:10.570Z,100488.88
2023-04-11T02:55:32.282Z,100482.41
2023-04-11T02:55:54.067Z,100485.44
2023-04-11T02:56:18.864Z,100488.41
2023-04-11T02:56:43.569Z,100484.09
2023-04-11T02:57:05.470Z,100489.34
2023-04-11T02:57:27.765Z,100489.03
2023-04-11T02:57:50.680Z,100488.88
2023-04-11T02:58:17.655Z,100490.22
2023-04-11T02:58:41.718Z,100488.88
2023-04-11T02:59:03.853Z,100478.88
2023-04-11T02:59:25.834Z,100478.63
2023-04-11T02:59:47.611Z,100476.69
2023-04-11T03:00:14.176Z,100480.88
2023-04-11T03:00:44.049Z,100484.03
2023-04-11T03:01:07.974Z,100485.66
2023-04-11T03:01:32.869Z,100481.03
2023-04-11T03:01:58.119Z,100483.66
2023-04-11T03:02:21.083Z,100485.00
2023-04-11T03:02:44.349Z,100477.97
2023-04-11T03:03:06.746Z,100487.09
2023-04-11T03:03:34.207Z,100481.09
2023-04-11T03:03:56.278Z,100488.81
2023-04-11T03:04:23.584Z,100492.00
2023-04-11T03:04:53.341Z,100498.81
2023-04-11T03:05:15.803Z,100490.66
2023-04-11T03:05:40.689Z,100493.44
2023-04-11T03:06:03.870Z,100494.28
2023-04-11T03:06:27.090Z,100495.22
2023-04-11T03:06:54.019Z,100489.03
2023-04-11T03:07:15.947Z,100500.94
2023-04-11T03:07:38.506Z,100496.47
2023-04-11T03:08:01.300Z,100495.47
2023-04-11T03:08:25.658Z,100496.94
2023-04-11T03:08:49.986Z,100498.47
2023-04-11T03:09:12.157Z,100493.03
2023-04-11T03:09:34.842Z,100495.47
2023-04-11T03:09:56.512Z,100500.88
2023-04-11T03:10:19.561Z,100492.34
2023-04-11T03:10:41.476Z,100494.22
2023-04-11T03:11:07.054Z,100498.88
2023-04-11T03:11:28.653Z,100500.88
2023-04-11T03:11:50.766Z,100492.94
2023-04-11T03:12:12.411Z,100506.13
2023-04-11T03:12:46.041Z,100491.03
2023-04-11T03:13:08.325Z,100495.94
2023-04-11T03:13:31.295Z,100498.47
2023-04-11T03:13:52.947Z,100500.88
2023-04-11T03:14:15.765Z,100504.34
2023-04-11T03:14:37.681Z,100500.16
2023-04-11T03:14:59.349Z,100491.16
2023-04-11T03:15:21.034Z,100489.63
2023-04-11T03:15:43.030Z,100496.88
2023-04-11T03:16:08.034Z,100499.00
2023-04-11T03:16:29.788Z,100498.97
2023-04-11T03:16:51.933Z,100493.63
2023-04-11T03:17:14.288Z,100500.66
2023-04-11T03:17:36.975Z,100500.31
2023-04-11T03:17:59.648Z,100495.91
2023-04-11T03:18:22.437Z,100500.91
2023-04-11T03:18:44.241Z,100494.47
2023-04-11T03:19:08.035Z,100493.34
2023-04-11T03:19:29.785Z,100503.78
2023-04-11T03:19:52.677Z,100497.44
2023-04-11T03:20:19.527Z,100498.09
2023-04-11T03:20:43.842Z,100497.75
2023-04-11T03:21:09.023Z,100508.34
2023-04-11T03:21:31.498Z,100499.47
2023-04-11T03:21:53.522Z,100490.63
2023-04-11T03:22:17.294Z,100505.53
2023-04-11T03:22:39.118Z,100498.81
2023-04-11T03:23:00.963Z,100494.34
2023-04-11T03:23:22.868Z,100498.63
2023-04-11T03:23:46.593Z,100495.81
2023-04-11T03:24:09.535Z,100497.47
2023-04-11T03:24:32.310Z,100487.16
2023-04-11T03:24:54.014Z,100490.78
2023-04-11T03:25:19.902Z,100493.03
2023-04-11T03:25:44.591Z,100499.28
2023-04-11T03:26:07.691Z,100499.28
2023-04-11T03:26:29.782Z,100486.88
2023-04-11T03:26:56.095Z,100483.28
2023-04-11T03:27:18.754Z,100495.59
2023-04-11T03:27:42.925Z,100482.22
2023-04-11T03:28:06.167Z,100489.28
2023-04-11T03:28:28.943Z,100489.69
2023-04-11T03:28:50.731Z,100489.28
2023-04-11T03:29:14.212Z,100497.06
2023-04-11T03:29:49.572Z,100490.28
2023-04-11T03:30:20.432Z,100479.56
2023-04-11T03:30:43.404Z,100491.28
2023-04-11T03:31:08.789Z,100499.94
2023-04-11T03:31:30.844Z,100488.69
2023-04-11T03:31:52.604Z,100496.41
2023-04-11T03:32:14.474Z,100492.16
2023-04-11T03:32:37.979Z,100499.28
2023-04-11T03:33:01.026Z,100486.16
2023-04-11T03:33:24.372Z,100492.22
2023-04-11T03:33:46.669Z,100489.44
2023-04-11T03:34:08.277Z,100500.66
2023-04-11T03:34:31.186Z,100492.63
2023-04-11T03:34:53.209Z,100495.06
2023-04-11T03:35:16.961Z,100500.56
2023-04-11T03:35:40.800Z,100478.97
2023-04-11T03:36:03.554Z,100494.75
2023-04-11T03:36:27.465Z,100492.34
2023-04-11T03:36:49.319Z,100491.44
2023-04-11T03:37:11.142Z,100499.13
2023-04-11T03:37:33.716Z,100501.69
2023-04-11T03:37:55.432Z,100500.81
2023-04-11T03:38:20.934Z,100493.03
2023-04-11T03:38:42.678Z,100500.81
2023-04-11T03:39:04.529Z,100498.34
2023-04-11T03:39:26.287Z,100490.56
2023-04-11T03:39:48.160Z,100492.31
2023-04-11T03:40:11.983Z,100502.75
2023-04-11T03:40:38.513Z,100506.13
2023-04-11T03:41:10.384Z,100503.78
2023-04-11T03:41:33.067Z,100506.94
2023-04-11T03:41:55.809Z,100493.69
2023-04-11T03:42:17.966Z,100480.94
2023-04-11T03:42:42.239Z,100492.88
2023-04-11T03:43:10.403Z,100499.63
2023-04-11T03:43:32.610Z,100505.69
2023-04-11T03:43:56.973Z,100495.69
2023-04-11T03:44:19.051Z,100505.34
2023-04-11T03:44:42.772Z,100502.47
2023-04-11T03:45:05.839Z,100503.22
2023-04-11T03:45:28.636Z,100505.28
2023-04-11T03:45:53.383Z,100501.53
2023-04-11T03:46:31.255Z,100504.00
2023-04-11T03:46:52.971Z,100507.59
2023-04-11T03:47:14.831Z,100512.13
2023-04-11T03:47:38.425Z,100506.66
2023-04-11T03:48:01.206Z,100515.31
2023-04-11T03:48:32.308Z,100506.47
2023-04-11T03:48:57.756Z,100510.09
2023-04-11T03:49:20.736Z,100506.41
2023-04-11T03:49:47.577Z,100509.06
2023-04-11T03:50:10.821Z,100515.25
2023-04-11T03:50:39.309Z,100516.13
2023-04-11T03:51:01.053Z,100518.72
2023-04-11T03:51:31.815Z,100506.88
2023-04-11T03:52:00.371Z,100508.28
2023-04-11T03:52:24.185Z,100509.53
2023-04-11T03:52:46.256Z,100511.13
2023-04-11T03:53:10.143Z,100514.06
2023-04-11T03:53:33.306Z,100512.84
2023-04-11T03:54:02.005Z,100507.53
2023-04-11T03:54:28.372Z,100512.66
2023-04-11T03:54:50.149Z,100512.75
2023-04-11T03:55:12.409Z,100517.06
2023-04-11T03:55:34.132Z,100511.53
2023-04-11T03:56:00.228Z,100516.75
2023-04-11T03:56:27.955Z,100515.00
2023-04-11T03:56:50.107Z,100523.66
2023-04-11T03:57:16.395Z,100521.00
2023-04-11T03:57:39.813Z,100527.19
2023-04-11T03:58:01.813Z,100521.88
2023-04-11T03:58:24.437Z,100534.16
2023-04-11T03:58:46.113Z,100526.13
2023-04-11T03:59:09.454Z,100527.75
2023-04-11T04:00:01.054Z,100528.22
2023-04-11T04:00:23.802Z,100530.06
2023-04-11T04:00:57.547Z,100526.97
2023-04-11T04:01:19.660Z,100522.78
2023-04-11T04:01:44.555Z,100517.41
2023-04-11T04:02:07.408Z,100523.66
2023-04-11T04:02:32.075Z,100525.38
2023-04-11T04:02:54.322Z,100520.31
2023-04-11T04:03:16.327Z,100524.72
2023-04-11T04:03:39.585Z,100524.56
2023-04-11T04:04:05.294Z,100521.91
2023-04-11T04:04:33.893Z,100523.66
2023-04-11T04:05:15.866Z,100530.97
2023-04-11T04:05:38.337Z,100527.75
2023-04-11T04:06:00.139Z,100531.94
2023-04-11T04:06:22.390Z,100534.09
2023-04-11T04:06:46.739Z,100529.34
2023-04-11T04:07:09.970Z,100520.81
2023-04-11T04:07:35.345Z,100530.91
2023-04-11T04:08:06.658Z,100529.00
2023-04-11T04:08:40.535Z,100520.69
2023-04-11T04:09:03.946Z,100528.47
2023-04-11T04:09:36.857Z,100528.28
2023-04-11T04:10:00.090Z,100520.19
2023-04-11T04:10:22.296Z,100537.72
2023-04-11T04:10:47.078Z,100533.75
2023-04-11T04:11:11.968Z,100527.69
2023-04-11T04:11:33.843Z,100526.75
2023-04-11T04:11:55.859Z,100529.41
2023-04-11T04:12:26.556Z,100533.06
2023-04-11T04:13:01.414Z,100532.06
2023-04-11T04:13:30.034Z,100525.13
2023-04-11T04:14:03.524Z,100533.94
2023-04-11T04:14:26.152Z,100528.44
2023-04-11T04:14:49.127Z,100535.28
2023-04-11T04:15:14.766Z,100529.97
2023-04-11T04:15:39.677Z,100529.88
2023-04-11T04:16:04.101Z,100526.34
2023-04-11T04:16:27.287Z,100527.75
2023-04-11T04:16:52.753Z,100524.16
2023-04-11T04:17:17.055Z,100517.16
2023-04-11T04:17:39.233Z,100523.16
2023-04-11T04:18:06.135Z,100535.28
2023-04-11T04:18:43.298Z,100527.06
2023-04-11T04:19:05.726Z,100513.88
2023-04-11T04:19:27.586Z,100517.34
2023-04-11T04:19:49.646Z,100526.09
2023-04-11T04:20:13.304Z,100523.44
2023-04-11T04:20:37.572Z,100532.31
2023-04-11T04:20:59.866Z,100526.00
2023-04-11T04:21:21.883Z,100524.41
2023-04-11T04:21:46.985Z,100536.22
2023-04-11T04:22:11.985Z,100533.81
2023-04-11T04:22:38.819Z,100519.72
2023-04-11T04:23:00.504Z,100524.03
2023-04-11T04:23:47.153Z,100529.00
2023-04-11T04:24:39.448Z,100524.28
2023-04-11T04:25:12.672Z,100528.88
2023-04-11T04:25:34.775Z,100531.28
2023-04-11T04:25:58.184Z,100528.00
2023-04-11T04:26:25.116Z,100520.88
2023-04-11T04:27:08.928Z,100528.78
2023-04-11T04:27:44.299Z,100524.16
2023-04-11T04:28:08.119Z,100527.63
2023-04-11T04:28:34.634Z,100519.53
2023-04-11T04:29:04.446Z,100524.28
2023-04-11T04:29:46.292Z,100527.50
2023-04-11T04:30:15.668Z,100533.31